• Join FlightAware (Why Join?)
  • Login
  • US Flag 
02:12PM EDT


 

Airport Tracker/Info


-or-


 

Live Flight TrackerFlight Track Log ✈ UCA3599 ✈ 14-Sep-2013 ✈ KBGM - KIAD

Flight Track Log - Related Links

Times and Time Zones

All times are in EDT time to prevent confusion due to time zone crossing. See the UCA3599 flight status page for this flight to view local times or setup timezone preferences in your user account.

Time Position Orientation Groundspeed Altitude Reporting Facility
EDT Latitude Longitude Course Direction KTS MPH feet Rate Location/Type
06:20AM 42.2114 -76.0650 211° Southwest 188 216 4,800  Level New York Center
06:21AM 42.1639 -76.1033 211° Southwest 195 224 6,300 1,320 Climbing New York Center
06:22AM 42.1161 -76.1442 212° Southwest 201 231 7,500 1,200 Climbing New York Center
06:23AM 42.0686 -76.1822 211° Southwest 201 231 8,700 1,200 Climbing New York Center
06:24AM 42.0167 -76.2253 212° Southwest 206 237 9,900 1,200 Climbing New York Center
06:25AM 41.7641 -76.1906 211° Southwest  Level Estimated
06:25AM 41.9672 -76.2631 210° Southwest 212 244 11,200  Level New York Center
06:26AM 41.9172 -76.3064 213° Southwest 217 250 12,500 1,200 Climbing New York Center
06:27AM 41.8719 -76.3417 210° Southwest 217 250 13,700 1,260 Climbing New York Center
06:28AM 41.8197 -76.3875 213° Southwest 217 250 15,100 1,140 Climbing New York Center
06:29AM 41.7700 -76.4275 211° Southwest 217 250 16,000 420 Climbing New York Center
06:30AM 41.7136 -76.4728 211° Southwest 223 257 16,000  Level New York Center
06:31AM 41.6575 -76.5153 210° Southwest 250 288 16,000  Level New York Center
06:32AM 41.5964 -76.5683 213° Southwest 263 303 16,000  Level New York Center
06:33AM 41.5253 -76.6203 209° Southwest 263 303 16,000  Level New York Center
06:34AM 41.4642 -76.6731 213° Southwest 263 303 16,000  Level New York Center
06:35AM 41.4011 -76.7258 212° Southwest 269 310 16,000  Level New York Center
06:36AM 41.3383 -76.7756 211° Southwest 269 310 16,000  Level New York Center
06:37AM 41.2625 -76.7936 190° South 269 310 16,000  Level New York Center
06:38AM 41.1889 -76.8064 187° South 269 310 16,000  Level New York Center
06:39AM 41.1131 -76.8217 189° South 279 321 16,000  Level New York Center
06:40AM 41.0372 -76.8369 189° South 279 321 16,000  Level New York Center
06:41AM 40.9636 -76.8522 189° South 279 321 16,000  Level New York Center
06:42AM 40.8878 -76.8675 189° South 279 321 16,000  Level New York Center
06:43AM 40.8203 -76.8806 188° South 279 321 16,000  Level New York Center
06:44AM 40.7378 -76.9033 192° South 279 321 16,000  Level New York Center
06:45AM 40.6722 -76.9222 192° South 279 321 16,000  Level New York Center
06:46AM 40.5894 -76.9503 194° South 279 321 16,000  Level New York Center
06:47AM 40.5219 -76.9689 192° South 284 327 16,000  Level New York Center
06:48AM 40.4411 -76.9969 195° South 284 327 16,000 -300 Level New York Center
06:49AM 40.3714 -77.0153 191° South 284 327 15,500 -960 Descending New York Center
06:50AM 40.2889 -77.0406 193° South 284 327 14,100 -1,440 Descending New York Center
06:52AM 40.1667 -77.0833 195° South 274 315 11,800 -1,380 Descending Potomac TRACON
06:53AM 40.1000 -77.1000 191° South 274 315 10,600 -1,260 Descending Potomac TRACON
06:54AM 40.0167 -77.1167 189° South 270 311 9,500 -900 Descending Potomac TRACON
06:55AM 39.9500 -77.1500 201° Southwest 253 291 9,000 -300 Descending Potomac TRACON
06:56AM 39.8833 -77.1667 191° South 248 285 8,900 -300 Descending Potomac TRACON
06:57AM 39.8167 -77.2000 201° Southwest 270 311 8,400 -480 Descending Potomac TRACON
06:58AM 39.7500 -77.2167 191° South 275 316 8,000 -240 Descending Potomac TRACON
06:58AM 39.7000 -77.2500 207° Southwest 265 305 8,000 -60 Level Potomac TRACON
06:59AM 39.6167 -77.2833 197° South 262 302 7,900 -240 Descending Potomac TRACON
07:00AM 39.5667 -77.3000 194° South 269 310 7,600 -360 Descending Potomac TRACON
07:01AM 39.5000 -77.3333 201° Southwest 268 308 7,300 -300 Descending Potomac TRACON
07:02AM 39.4333 -77.3500 191° South 265 305 7,100 -540 Descending Potomac TRACON
07:03AM 39.3500 -77.3667 189° South 269 310 6,300 -1,020 Descending Potomac TRACON
07:04AM 39.2833 -77.3667 180° South 263 303 5,100 -1,080 Descending Potomac TRACON
07:05AM 39.2167 -77.3667 180° South 255 293 4,300 -600 Descending Potomac TRACON
07:06AM 39.1500 -77.3500 169° South 260 299 4,000 -180 Descending Potomac TRACON
07:07AM 39.0667 -77.3500 180° South 258 297 4,000 -120 Level Potomac TRACON
07:08AM 39.0000 -77.3500 180° South 256 295 3,800 -540 Descending Potomac TRACON
07:09AM 38.9333 -77.3667 191° South 251 289 3,000 -420 Descending Potomac TRACON
07:10AM 38.8667 -77.3500 169° South 236 272 3,000  Level Potomac TRACON
07:11AM 38.8000 -77.3667 191° South 237 273 3,000  Level Potomac TRACON
07:12AM 38.7667 -77.4000 218° Southwest 235 270 3,000 -240 Level Potomac TRACON
07:13AM 38.8000 -77.4333 322° Northwest 180 207 2,600 -600 Descending Potomac TRACON
07:14AM 38.8500 -77.4333 360° North 137 158 1,800 -720 Descending Potomac TRACON
07:15AM 38.8833 -77.4333 360° North 106 122 1,200 -600 Descending Potomac TRACON
07:16AM 38.9167 -77.4333 360° North 102 117 600 -600 Descending Potomac TRACON